CodeNameFirst purchased atOnCurrent priceGain/lossTotal invested
MMM 3M Co $158.33 $158.33 0% $0.00
AOS A. O. Smith Corp $48.91 $48.91 0% $0.00
ABT Abbott Laboratories $76.57 2020-04-02 06:40:46 $101.23 32.21% $9,954.10
ABBV AbbVie Inc $92.92 2020-04-02 06:40:46 $92.92 0% $0.00
ABMD ABIOMED, Inc. $310.82 2020-04-02 06:40:46 $310.82 0% $0.00
ACN Accenture Plc $231.56 2020-04-02 06:40:46 $231.56 0% $0.00
ATVI Activision Blizzard, Inc. $60.70 2020-01-08 09:51:01 $82.47 35.86% $607.00
ADBE Adobe Inc $449.57 2020-01-08 09:51:01 $449.57 0% $0.00
AAP Advance Auto Parts, Inc. $151.97 2020-01-08 09:51:01 $151.97 0% $0.00
AMD Advanced Micro Devices, Inc. $47.67 2020-01-08 09:51:27 $84.85 77.99% $476.70
AES AES Corp $17.16 2020-01-08 09:51:27 $17.16 0% $0.00
AMG Affiliated Managers Group, Inc. $72.14 2020-01-08 09:51:27 $72.14 0% $0.00
AFL AFLAC Incorporated $36.52 2020-01-08 09:51:27 $36.52 0% $0.00
A Agilent Technologies Inc $97.78 2020-01-08 09:51:27 $97.78 0% $0.00
APD Air Products & Chemicals, Inc. $281.69 2020-01-08 09:51:27 $281.69 0% $0.00
AKAM Akamai Technologies, Inc. $109.22 2020-01-08 09:51:27 $109.22 0% $0.00
ALK Alaska Air Group, Inc. $36.61 2020-01-08 09:51:27 $36.61 0% $0.00
ALB Albemarle Corporation $83.25 2020-02-11 02:52:52 $84.44 1.43% -$1,129.14
ARE Alexandria Real Estate Equities Inc $175.65 2020-02-11 02:52:52 $175.65 0% $0.00
ALXN Alexion Pharmaceuticals, Inc. $103.28 2020-02-11 02:52:52 $103.28 0% $0.00
ALGN Align Technology, Inc. $305.81 2020-02-11 02:52:52 $305.81 0% $0.00
ALLE Allegion PLC $100.11 2020-02-11 02:52:52 $100.11 0% $0.00
AGN Allergan plc $0.32 2020-02-11 02:52:52 $0.32 0% $0.00
ADS Alliance Data Systems Corporation $46.15 2020-02-11 02:52:52 $46.15 0% $0.00
LNT Alliant Energy Corporation $54.72 2020-02-11 02:52:52 $54.72 0% $0.00
ALL Allstate Corp $96.91 2020-02-11 02:52:52 $96.91 0% $0.00
GOOGL Alphabet Inc Class A $1,117.03 2020-04-03 03:12:21 $1,498.37 34.14% $78,912.86
GOOG Alphabet Inc Class C $1,494.49 2020-04-03 03:12:21 $1,494.49 0% $0.00
MO Altria Group Inc $42.17 2020-04-03 03:12:21 $42.17 0% $0.00
AMZN Amazon.com, Inc. $1,847.84 2020-01-02 05:40:03 $3,167.46 71.41% $94,954.91
AEE Ameren Corp $82.18 2020-01-02 05:40:03 $82.18 0% $0.00
AAL American Airlines Group Inc $13.03 2020-01-02 05:40:03 $13.03 0% $0.00
AEP American Electric Power Company Inc $86.60 2020-01-02 05:40:03 $86.60 0% $0.00
AXP American Express Company $99.16 2020-01-02 05:40:03 $99.16 0% $0.00
AIG American International Group Inc $30.66 2020-01-02 05:40:03 $30.66 0% $0.00
AMT American Tower Corp $257.61 2020-01-02 05:40:03 $257.61 0% $0.00
AWK American Water Works Company Inc $149.79 2020-01-02 05:40:03 $149.79 0% $0.00
AMP Ameriprise Financial, Inc. $159.84 2020-01-02 05:40:03 $159.84 0% $0.00
ABC AmerisourceBergen Corp. $102.10 2020-01-02 05:40:03 $102.10 0% $0.00
AME AMETEK, Inc. $97.79 2020-01-02 05:40:03 $97.79 0% $0.00
AMGN Amgen, Inc. $240.69 2020-01-02 05:40:03 $240.69 0% $0.00
APH Amphenol Corporation $107.96 2020-01-02 05:40:03 $107.96 0% $0.00
APC Anadarko Petroleum Corporation $0.09 2020-01-02 05:40:03 $0.09 0% $0.00
ADI Analog Devices, Inc. $116.32 2020-01-02 05:40:03 $116.32 0% $0.00
ANSS ANSYS, Inc. $312.37 2020-01-02 05:40:03 $312.37 0% $0.00
ANTM Anthem Inc $276.66 2020-01-02 05:40:03 $276.66 0% $0.00
AON Aon PLC $195.44 2020-01-02 05:40:03 $195.44 0% $0.00
APA Apache Corporation $15.54 2020-01-02 05:40:03 $15.54 0% $0.00
AIV Apartment Investment and Management Co $37.03 2020-01-02 05:40:03 $37.03 0% $0.00
AAPL Apple Inc. $326.79 2020-01-29 14:22:55 $444.45 36% $1,633.95
AMAT Applied Materials, Inc. $61.70 2020-01-08 09:52:30 $63.57 3.03% $308.50
APTV Aptiv PLC $83.86 2020-01-08 09:52:30 $83.86 0% $0.00
ADM Archer Daniels Midland Co $44.03 2020-01-08 09:52:30 $44.03 0% $0.00
ARNC Arconic Inc $19.95 2020-01-08 09:52:30 $19.95 0% $0.00
ANET Arista Networks Inc $230.80 2020-01-08 09:52:30 $230.80 0% $0.00
AJG Arthur J Gallagher & Co $106.81 2020-01-08 09:52:30 $106.81 0% $0.00
AIZ Assurant, Inc. $122.21 2020-01-08 09:52:30 $122.21 0% $0.00
T AT&T Inc. $30.02 2020-01-08 09:52:30 $30.02 0% $0.00
ADSK Autodesk, Inc. $236.24 2020-01-08 09:52:30 $236.24 0% $0.00
ADP Automatic Data Processing $137.99 2020-01-08 09:52:30 $137.99 0% $0.00
AZO AutoZone, Inc. $1,182.22 2020-01-08 09:52:30 $1,182.22 0% $0.00
AVB AvalonBay Communities Inc $153.86 2020-01-08 09:52:30 $153.86 0% $0.00
AVY Avery Dennison Corp $115.82 2020-01-08 09:52:30 $115.82 0% $0.00
BHGE Baker Hughes A GE Co $21.29 2020-01-08 09:52:30 $21.29 0% $0.00
BLL Ball Corporation $75.53 2020-01-08 09:52:30 $75.53 0% $0.00
BAC Bank of America Corp $26.11 2020-01-08 09:52:30 $26.11 0% $0.00
BK Bank of New York Mellon Corp $37.75 2020-01-08 09:52:30 $37.75 0% $0.00
BAX Baxter International Inc $80.73 2020-01-08 09:52:30 $80.73 0% $0.00
BBT BB&T Corporation $0.20 2020-01-08 09:52:30 $0.20 0% $0.00
BDX Becton Dickinson and Co $256.41 2020-01-08 09:52:30 $256.41 0% $0.00
BRK.B Berkshire Hathaway Inc. Class B $226.48 2020-02-10 11:40:20 $209.48 -7.51% $10,228.75
BBY Best Buy Co Inc $102.90 2020-02-10 11:40:20 $102.90 0% $0.00
BIIB Biogen Inc $305.71 2020-02-10 11:40:20 $305.71 0% $0.00
BTC Bitcoin $7,108.87 2020-01-02 00:49:11 $11,587.90 63.01% $76,571.21
BLK BlackRock, Inc. $588.19 2020-01-02 00:49:11 $588.19 0% $0.00
BA Boeing Co $324.17 2020-01-17 15:06:09 $170.02 -47.55% $15,405.19
BKNG Booking Holdings Inc $1,754.48 2020-01-17 15:06:09 $1,754.48 0% $0.00
BWA BorgWarner Inc. $38.91 2020-01-17 15:06:09 $38.91 0% $0.00
BXP Boston Properties, Inc. $90.04 2020-01-17 15:06:09 $90.04 0% $0.00
BSX Boston Scientific Corporation $38.97 2020-01-17 15:06:09 $38.97 0% $0.00
BHF Brighthouse Financial Inc $30.73 2020-01-17 15:06:09 $30.73 0% $0.00
BMY Bristol-Myers Squibb Co $61.02 2020-01-17 15:06:09 $61.02 0% $0.00
AVGO Broadcom Inc $325.93 2020-01-17 15:06:09 $325.93 0% $0.00
BR Broadridge Financial Solutions, Inc. $135.25 2020-01-17 15:06:09 $135.25 0% $0.00
BF.B Brown-Forman Corporation Class B $68.72 2020-01-17 15:06:09 $68.72 0% $0.00
CHRW C.H. Robinson Worldwide Inc $95.79 2020-01-17 15:06:09 $95.79 0% $0.00
COG Cabot Oil & Gas Corporation $20.59 2020-01-17 15:06:09 $20.59 0% $0.00
CDNS Cadence Design Systems Inc $108.53 2020-01-17 15:06:09 $108.53 0% $0.00
CPB Campbell Soup Company $49.97 2020-01-17 15:06:09 $49.97 0% $0.00
COF Capital One Financial Corp. $65.75 2020-01-17 15:06:09 $65.75 0% $0.00
CAH Cardinal Health Inc $52.58 2020-01-17 15:06:09 $52.58 0% $0.00
KMX CarMax, Inc $100.28 2020-01-17 15:06:09 $100.28 0% $0.00
CCL Carnival Corp $14.22 2020-01-17 15:06:09 $14.22 0% $0.00
CAT Caterpillar Inc. $134.92 2020-01-17 15:06:09 $134.92 0% $0.00
CBOE Cboe Global Markets Inc $88.06 2020-01-17 15:06:09 $88.06 0% $0.00
CBRE CBRE Group Inc $44.02 2020-01-17 15:06:09 $44.02 0% $0.00
CBS CBS Corporation Common Stock $0.14 2020-01-17 15:06:09 $0.14 0% $0.00
CELG Celgene Corporation $96.70 2020-01-17 15:06:09 $96.70 0% $0.00
CNC Centene Corp $64.28 2020-01-17 15:06:09 $64.28 0% $0.00
CNP CenterPoint Energy, Inc. $20.41 2020-01-17 15:06:09 $20.41 0% $0.00
CTL Centurylink Inc $10.49 2020-01-17 15:06:09 $10.49 0% $0.00
CERN Cerner Corporation $70.04 2020-01-17 15:06:09 $70.04 0% $0.00
CF CF Industries Holdings, Inc. $33.13 2020-01-17 15:06:09 $33.13 0% $0.00
SCHW Charles Schwab Corporation Common Stock $34.04 2020-01-17 15:06:09 $34.04 0% $0.00
CHTR Charter Communications Inc $601.87 2020-01-17 15:06:09 $601.87 0% $0.00
CVX Chevron Corporation $86.80 2020-01-17 15:06:09 $86.80 0% $0.00
CMG Chipotle Mexican Grill, Inc. $1,180.62 2020-01-17 15:06:09 $1,180.62 0% $0.00
CB Chubb Ltd $129.95 2020-01-17 15:06:09 $129.95 0% $0.00
CHD Church & Dwight Co., Inc. $94.96 2020-01-17 15:06:09 $94.96 0% $0.00
CI Cigna Holding Co $178.19 2020-01-17 15:06:09 $178.19 0% $0.00
XEC Cimarex Energy Co $28.35 2020-01-17 15:06:09 $28.35 0% $0.00
CINF Cincinnati Financial Corporation $81.67 2020-01-17 15:06:09 $81.67 0% $0.00
CTAS Cintas Corporation $310.01 2020-01-17 15:06:09 $310.01 0% $0.00
CSCO Cisco Systems, Inc. $47.43 2020-01-17 15:06:09 $47.43 0% $0.00
C Citigroup Inc $52.12 2020-01-17 15:06:09 $52.12 0% $0.00
CFG Citizens Financial Group Inc $25.43 2020-01-17 15:06:09 $25.43 0% $0.00
CTXS Citrix Systems, Inc. $141.14 2020-01-17 15:06:09 $141.14 0% $0.00
CLX Clorox Co $237.49 2020-01-17 15:06:09 $237.49 0% $0.00
CME CME Group Inc $167.14 2020-01-17 15:06:09 $167.14 0% $0.00
CMS CMS Energy Corporation $62.88 2020-01-17 15:06:09 $62.88 0% $0.00
CTSH Cognizant Technology Solutions Corp $67.48 2020-01-17 15:06:09 $67.48 0% $0.00
CL Colgate-Palmolive Company $76.24 2020-01-17 15:06:09 $76.24 0% $0.00
CMCSA Comcast Corporation $42.81 2020-01-17 15:06:09 $42.81 0% $0.00
CMA Comerica Incorporated $40.02 2020-01-17 15:06:09 $40.02 0% $0.00
CAG Conagra Brands Inc $37.84 2020-01-17 15:06:09 $37.84 0% $0.00
CXO Concho Resources Inc $51.27 2020-01-17 15:06:09 $51.27 0% $0.00
COP ConocoPhillips $38.30 2020-01-17 15:06:09 $38.30 0% $0.00
ED Consolidated Edison, Inc. $75.11 2020-01-17 15:06:09 $75.11 0% $0.00
STZ Constellation Brands, Inc. Class A $172.27 2020-01-17 15:06:09 $172.27 0% $0.00
COO Cooper Companies Inc $303.92 2020-01-17 15:06:09 $303.92 0% $0.00
CPRT Copart, Inc. $99.24 2020-01-17 15:06:09 $99.24 0% $0.00
GLW Corning Incorporated $31.85 2020-01-17 15:06:09 $31.85 0% $0.00
COST Costco Wholesale Corporation $340.91 2020-01-17 15:06:09 $340.91 0% $0.00
COTY Coty Inc $4.00 2020-01-17 15:06:09 $4.00 0% $0.00
CCI CROWN CASTLE IN/SH SH $168.19 2020-01-17 15:06:09 $168.19 0% $0.00
CSX CSX Corporation $72.93 2020-01-17 15:06:09 $72.93 0% $0.00
CMI Cummins Inc. $199.27 2020-01-17 15:06:09 $199.27 0% $0.00
CVS CVS Health Corp $72.49 2020-01-08 09:53:36 $64.96 -10.39% $144.98
DHI D. R. Horton Inc $68.38 2020-01-08 09:53:36 $68.38 0% $0.00
DHR Danaher Corporation $205.40 2020-01-08 09:53:36 $205.40 0% $0.00
DRI Darden Restaurants, Inc. $79.06 2020-01-08 09:53:36 $79.06 0% $0.00
DVA Davita Inc $82.37 2020-01-08 09:53:36 $82.37 0% $0.00
DE Deere & Company $183.50 2020-01-08 09:53:36 $183.50 0% $0.00
DAL Delta Air Lines, Inc. $27.18 2020-01-08 09:53:36 $27.18 0% $0.00
XRAY DENTSPLY SIRONA Inc $45.36 2020-01-08 09:53:36 $45.36 0% $0.00
DVN Devon Energy Corp $12.11 2020-01-08 09:53:36 $12.11 0% $0.00
FANG Diamondback Energy Inc $42.01 2020-01-08 09:53:36 $42.01 0% $0.00
DLR DIGITAL RLTY TR/SH $158.61 2020-01-08 09:53:36 $158.61 0% $0.00
DFS Discover Financial Services $51.39 2020-01-08 09:53:36 $51.39 0% $0.00
DISCA DISCOVERY COMMUNICATIONS INC. Common Stock $20.98 2020-01-08 09:53:36 $20.98 0% $0.00
DISCK Discovery Inc Series C $19.30 2020-01-08 09:53:36 $19.30 0% $0.00
DISH DISH Network Corp $34.17 2020-01-08 09:53:36 $34.17 0% $0.00
DG Dollar General Corp. $195.29 2020-01-08 09:53:36 $195.29 0% $0.00
DLTR Dollar Tree, Inc. $96.49 2020-01-08 09:53:36 $96.49 0% $0.00
D Dominion Energy Inc $80.62 2020-01-08 09:53:36 $80.62 0% $0.00
DOV Dover Corp $108.03 2020-01-08 09:53:36 $108.03 0% $0.00
DWDP DowDuPont Inc $30.52 2020-01-08 09:53:36 $30.52 0% $0.00
DTE DTE Energy Co $118.86 2020-01-08 09:53:36 $118.86 0% $0.00
DUK Duke Energy Corp $86.61 2020-01-08 09:53:36 $86.61 0% $0.00
DRE Duke Realty Corp $39.75 2020-01-08 09:53:36 $39.75 0% $0.00
DXC DXC Technology Co $19.90 2020-01-08 09:53:36 $19.90 0% $0.00
ETFC E*TRADE Financial Corp $52.41 2020-01-08 09:53:36 $52.41 0% $0.00
EMN Eastman Chemical Company $73.06 2020-01-08 09:53:36 $73.06 0% $0.00
ETN Eaton Corporation PLC $97.76 2020-01-08 09:53:36 $97.76 0% $0.00
EBAY eBay Inc $36.11 2020-01-02 05:39:26 $55.21 52.89% $361.10
ECL Ecolab Inc. $194.90 2020-01-02 05:39:26 $194.90 0% $0.00
EIX Edison International $54.61 2020-01-02 05:39:26 $54.61 0% $0.00
EW Edwards Lifesciences Corp $76.94 2020-01-02 05:39:26 $76.94 0% $0.00
EA Electronic Arts Inc. $143.99 2020-01-02 05:39:26 $143.99 0% $0.00
LLY Eli Lilly And Co $152.93 2020-01-02 05:39:26 $152.93 0% $0.00
EMR Emerson Electric Co. $66.37 2020-01-02 05:39:26 $66.37 0% $0.00
ETR Entergy Corporation $104.67 2020-01-02 05:39:26 $104.67 0% $0.00
EOG EOG Resources Inc $48.81 2020-01-02 05:39:26 $48.81 0% $0.00
EFX Equifax Inc. $166.64 2020-01-02 05:39:26 $166.64 0% $0.00
EQIX Equinix Inc $791.70 2020-01-02 05:39:26 $791.70 0% $0.00
EQR Equity Residential $55.19 2020-01-02 05:39:26 $55.19 0% $0.00
ESS Essex Property Trust Inc $223.19 2020-01-02 05:39:26 $223.19 0% $0.00
EL Estee Lauder Companies Inc $199.99 2020-01-02 05:39:26 $199.99 0% $0.00
RE Everest Re Group Ltd $232.19 2020-01-02 05:39:26 $232.19 0% $0.00
EVRG Evergy Inc $55.16 2020-01-02 05:39:26 $55.16 0% $0.00
ES Eversource Energy $89.02 2020-01-02 05:39:26 $89.02 0% $0.00
EXC Exelon Corporation $38.93 2020-01-02 05:39:26 $38.93 0% $0.00
EXPE Expedia Group Inc $82.56 2020-01-02 05:39:26 $82.56 0% $0.00
EXPD Expeditors International of Washington $85.45 2020-01-02 05:39:26 $85.45 0% $0.00
ESRX EXPRESS SCRIPTS/SH $94.19 2020-01-02 05:39:26 $94.19 0% $0.00
EXR Extra Space Storage, Inc. $103.76 2020-01-02 05:39:26 $103.76 0% $0.00
XOM Exxon Mobil Corporation $43.44 2020-01-02 05:39:26 $43.44 0% $0.00
FFIV F5 Networks, Inc. $140.58 2020-01-02 05:39:26 $140.58 0% $0.00
FB Facebook, Inc. Common Stock $268.44 2020-01-02 05:39:26 $268.44 0% $0.00
FAST Fastenal Company $48.45 2020-01-02 05:39:26 $48.45 0% $0.00
FRT Federal Realty Investment Trust $78.81 2020-01-02 05:39:26 $78.81 0% $0.00
FDX FedEx Corporation $183.53 2020-01-02 05:39:26 $183.53 0% $0.00
FIS Fidelity National Information Servcs Inc $147.78 2020-01-02 05:39:26 $147.78 0% $0.00
FITB Fifth Third Bancorp $20.45 2020-01-02 05:39:26 $20.45 0% $0.00
FE FirstEnergy Corp. $29.44 2020-01-02 05:39:26 $29.44 0% $0.00
FISV Fiserv Inc $103.91 2020-01-02 05:39:26 $103.91 0% $0.00
FLT FleetCor Technologies, Inc. $240.61 2020-01-02 05:39:26 $240.61 0% $0.00
FLIR FLIR Systems, Inc. $37.48 2020-01-02 05:39:26 $37.48 0% $0.00
FLS Flowserve Corp $29.96 2020-01-02 05:39:26 $29.96 0% $0.00
FLR Fluor Corporation (NEW) $11.38 2020-01-02 05:39:26 $11.38 0% $0.00
FMC FMC Corp $109.77 2020-01-02 05:39:26 $109.77 0% $0.00
FL Foot Locker, Inc. $27.48 2020-01-02 05:39:26 $27.48 0% $0.00
F Ford Motor Company $6.86 2020-01-02 05:39:26 $6.86 0% $0.00
FTNT Fortinet Inc $131.00 2020-01-02 05:39:26 $131.00 0% $0.00
FTV Fortive Corp $72.23 2020-01-02 05:39:26 $72.23 0% $0.00
FBHS Fortune Brands Home & Security Inc $79.81 2020-01-02 05:39:26 $79.81 0% $0.00
BEN Franklin Resources, Inc. $22.31 2020-01-02 05:39:26 $22.31 0% $0.00
FCX Freeport-McMoRan Inc $13.96 2020-01-02 05:39:26 $13.96 0% $0.00
GPS Gap Inc $14.08 2020-01-02 05:39:26 $14.08 0% $0.00
GRMN Garmin Ltd. $101.89 2020-01-02 05:39:26 $101.89 0% $0.00
IT Gartner Inc $131.54 2020-01-02 05:39:26 $131.54 0% $0.00
GD General Dynamics Corporation $152.97 2020-01-02 05:39:26 $152.97 0% $0.00
GE General Electric Company $6.40 2020-01-02 05:39:26 $6.40 0% $0.00
GIS General Mills, Inc. $64.35 2020-01-02 05:39:26 $64.35 0% $0.00
GM General Motors Company $26.72 2020-01-02 05:39:26 $26.72 0% $0.00
GPC Genuine Parts Company $92.75 2020-01-02 05:39:26 $92.75 0% $0.00
GILD Gilead Sciences, Inc. $78.08 2020-07-21 04:24:23 $69.35 -11.18% $1,212.20
GPN Global Payments Inc $174.83 2020-07-21 04:24:23 $174.83 0% $0.00
GS Goldman Sachs Group Inc $208.27 2020-07-21 04:24:23 $208.27 0% $0.00
GT Goodyear Tire & Rubber Co $9.46 2020-07-21 04:24:23 $9.46 0% $0.00
HRB H & R Block Inc $15.35 2020-07-21 04:24:23 $15.35 0% $0.00
HAL Halliburton Company $14.89 2020-07-21 04:24:23 $14.89 0% $0.00
HBI Hanesbrands Inc. $15.04 2020-07-21 04:24:23 $15.04 0% $0.00
HOG Harley-Davidson Inc $26.21 2020-07-21 04:24:23 $26.21 0% $0.00
HRS Harris Corporation $149.00 2020-07-21 04:24:23 $149.00 0% $0.00
HIG Hartford Financial Services Group Inc $42.80 2020-07-21 04:24:23 $42.80 0% $0.00
HAS Hasbro, Inc. $76.75 2020-07-21 04:24:23 $76.75 0% $0.00
HCA HCA Healthcare Inc $130.27 2020-07-21 04:24:23 $130.27 0% $0.00
HCP HCP, Inc. $34.59 2020-07-21 04:24:23 $34.59 0% $0.00
HP Helmerich & Payne, Inc. $18.44 2020-07-21 04:24:23 $18.44 0% $0.00
HSIC Henry Schein, Inc. $67.80 2020-07-21 04:24:23 $67.80 0% $0.00
HSY Hershey Co $143.92 2020-07-21 04:24:23 $143.92 0% $0.00
HES Hess Corp. $53.03 2020-07-21 04:24:23 $53.03 0% $0.00
HPE Hewlett Packard Enterprise Co $10.09 2020-07-21 04:24:23 $10.09 0% $0.00
HLT Hilton Hotels Corporation Common Stock $83.70 2020-07-21 04:24:23 $83.70 0% $0.00
HFC HollyFrontier Corp $25.50 2020-07-21 04:24:23 $25.50 0% $0.00
HOLX Hologic, Inc. $68.55 2020-07-21 04:24:23 $68.55 0% $0.00
HD Home Depot Inc $271.64 2020-07-21 04:24:23 $271.64 0% $0.00
HON Honeywell International Inc. $155.11 2020-07-21 04:24:23 $155.11 0% $0.00
HRL Hormel Foods Corp $51.62 2020-07-21 04:24:23 $51.62 0% $0.00
HST Host Hotels and Resorts Inc $11.50 2020-07-21 04:24:23 $11.50 0% $0.00
HPQ HP Inc $18.47 2020-07-21 04:24:23 $18.47 0% $0.00
HUM Humana Inc $417.94 2020-07-21 04:24:23 $417.94 0% $0.00
HBAN Huntington Bancshares Incorporated $9.66 2020-07-21 04:24:23 $9.66 0% $0.00
HII Huntington Ingalls Industries Inc $167.90 2020-07-21 04:24:23 $167.90 0% $0.00
IBM IBM Common Stock $124.96 2020-07-21 04:24:23 $124.96 0% $0.00
IDXX IDEXX Laboratories, Inc. $381.76 2020-07-21 04:24:23 $381.76 0% $0.00
INFO IHS Markit Ltd $83.96 2020-07-21 04:24:23 $83.96 0% $0.00
ITW Illinois Tool Works Inc. $190.55 2020-07-21 04:24:23 $190.55 0% $0.00
ILMN Illumina, Inc. $355.66 2020-07-21 04:24:23 $355.66 0% $0.00
INCY Incyte Corporation $96.93 2020-07-21 04:24:23 $96.93 0% $0.00
IR Ingersoll-Rand PLC $33.90 2020-07-21 04:24:23 $33.90 0% $0.00
INTC Intel Corporation $48.03 2020-07-21 04:24:23 $48.03 0% $0.00
ICE Intercontinental Exchange Inc $100.96 2020-07-21 04:24:23 $100.96 0% $0.00
IFF International Flavors & Fragrances Inc $126.80 2020-07-21 04:24:23 $126.80 0% $0.00
IP International Paper Co $35.49 2020-07-21 04:24:23 $35.49 0% $0.00
IPG Interpublic Group of Companies Inc $18.41 2020-07-21 04:24:23 $18.41 0% $0.00
INTU Intuit Inc. $309.43 2020-07-21 04:24:23 $309.43 0% $0.00
ISRG Intuitive Surgical, Inc. $685.85 2020-07-21 04:24:23 $685.85 0% $0.00
IVZ Invesco Ltd. $10.78 2020-07-21 04:24:23 $10.78 0% $0.00
IPGP IPG Photonics Corporation $163.26 2020-07-21 04:24:23 $163.26 0% $0.00
IQV Iqvia Holdings Inc $160.54 2020-07-21 04:24:23 $160.54 0% $0.00
IRM Iron Mountain Inc $29.45 2020-07-21 04:24:23 $29.45 0% $0.00
JBHT J B Hunt Transport Services Inc $135.95 2020-07-21 04:24:23 $135.95 0% $0.00
SJM J M Smucker Co $111.05 2020-07-21 04:24:23 $111.05 0% $0.00
JKHY Jack Henry & Associates, Inc. $184.00 2020-07-21 04:24:23 $184.00 0% $0.00
JEC Jacobs Engineering Group Inc $0.06 2020-07-21 04:24:23 $0.06 0% $0.00
JEF Jefferies Financial Group Inc $16.85 2020-07-21 04:24:23 $16.85 0% $0.00
JNJ Johnson & Johnson $148.60 2020-07-21 04:24:23 $148.60 0% $0.00
JCI Johnson Controls International PLC $39.05 2020-07-21 04:24:23 $39.05 0% $0.00
JPM JPMorgan Chase & Co. $99.38 2020-07-21 04:24:23 $99.38 0% $0.00
JNPR Juniper Networks, Inc. $25.94 2020-07-21 04:24:23 $25.94 0% $0.00
KSU Kansas City Southern $187.04 2020-07-21 04:24:23 $187.04 0% $0.00
K Kellogg Company $69.52 2020-07-21 04:24:23 $69.52 0% $0.00
KEY KeyCorp $12.53 2020-07-21 04:24:23 $12.53 0% $0.00
KEYS Keysight Technologies Inc $98.14 2020-07-21 04:24:23 $98.14 0% $0.00
KMB Kimberly Clark Corp $157.26 2020-07-21 04:24:23 $157.26 0% $0.00
KIM Kimco Realty Corp $11.93 2020-07-21 04:24:23 $11.93 0% $0.00
KMI Kinder Morgan Inc $14.32 2020-07-21 04:24:23 $14.32 0% $0.00
KLAC KLA-Tencor Corp $177.41 2020-01-08 09:55:12 $202.85 14.34% $177.41
KHC Kraft Heinz Co $35.41 2020-01-08 09:55:12 $35.41 0% $0.00
KR Kroger Co $35.24 2020-01-08 09:55:12 $35.24 0% $0.00
LB L Brands Inc $26.04 2020-01-08 09:55:12 $26.04 0% $0.00
LLL L3 Technologies Inc $0.07 2020-01-08 09:55:12 $0.07 0% $0.00
LH Laboratory Corp. of America Holdings $193.11 2020-01-08 09:55:12 $193.11 0% $0.00
LRCX Lam Research Corporation $372.44 2020-01-08 09:55:12 $372.44 0% $0.00
LW Lamb Weston Holdings Inc $62.75 2020-01-08 09:55:12 $62.75 0% $0.00
LEG Leggett & Platt, Inc. $39.15 2020-01-08 09:55:12 $39.15 0% $0.00
LEN Lennar Corporation $73.24 2020-01-08 09:55:12 $73.24 0% $0.00
LNC Lincoln National Corporation $38.36 2020-01-08 09:55:12 $38.36 0% $0.00
LIN Linde PLC $245.31 2020-01-08 09:55:12 $245.31 0% $0.00
LKQ LKQ Corporation $30.14 2020-01-08 09:55:12 $30.14 0% $0.00
LMT Lockheed Martin Corporation $385.62 2020-01-08 09:55:12 $385.62 0% $0.00
L Loews Corporation $37.76 2020-01-08 09:55:12 $37.76 0% $0.00
LYB LyondellBasell Industries NV $66.69 2020-01-08 09:55:12 $66.69 0% $0.00
MTB M&T Bank Corporation $107.61 2020-01-08 09:55:12 $107.61 0% $0.00
MAC Macerich Co $7.85 2020-01-08 09:55:12 $7.85 0% $0.00
MRO Marathon Oil Corporation $5.74 2020-01-08 09:55:12 $5.74 0% $0.00
MPC Marathon Petroleum Corp $36.67 2020-01-08 09:55:12 $36.67 0% $0.00
MAR Marriott International Inc $93.78 2020-01-08 09:55:12 $93.78 0% $0.00
MMC Marsh & McLennan Companies, Inc. $117.74 2020-01-08 09:55:12 $117.74 0% $0.00
MLM Martin Marietta Materials, Inc. $220.00 2020-01-08 09:55:12 $220.00 0% $0.00
MAS Masco Corp $58.17 2020-01-08 09:55:12 $58.17 0% $0.00
MA Mastercard Inc $298.59 2020-01-02 05:37:57 $328.02 9.86% $4,069.70
MAT Mattel, Inc. $11.36 2020-01-02 05:37:57 $11.36 0% $0.00
MXIM Maxim Integrated Products Inc. $68.69 2020-01-02 05:37:57 $68.69 0% $0.00
MKC MCCORMICK & CO /SH NV $201.55 2020-01-02 05:37:57 $201.55 0% $0.00
MCK McKesson Corporation $152.00 2020-01-02 05:37:57 $152.00 0% $0.00
MDT Medtronic PLC $100.05 2020-01-02 05:37:57 $100.05 0% $0.00
MRK Merck & Co., Inc. $81.02 2020-01-02 05:37:57 $81.02 0% $0.00
MET Metlife Inc $38.72 2020-01-02 05:37:57 $38.72 0% $0.00
MTD Mettler-Toledo International Inc. $944.17 2020-01-02 05:37:57 $944.17 0% $0.00
MGM MGM Resorts International $19.03 2020-01-02 05:37:57 $19.03 0% $0.00
KORS Michael Kors Holdings Ltd $37.92 2020-01-02 05:37:57 $37.92 0% $0.00
MCHP Microchip Technology Inc. $98.97 2020-01-02 05:37:57 $98.97 0% $0.00
MU Micron Technology, Inc. $48.75 2020-01-02 05:37:57 $48.75 0% $0.00
MSFT Microsoft Corporation $172.78 2020-01-31 04:02:39 $212.48 22.98% $99,354.02
MAA Mid-America Apartment Communities Inc $116.49 2020-01-31 04:02:39 $116.49 0% $0.00
MHK Mohawk Industries, Inc. $85.65 2020-01-31 04:02:39 $85.65 0% $0.00
TAP Molson Coors Brewing Co Class B $37.27 2020-01-31 04:02:39 $37.27 0% $0.00
MDLZ MONDELEZ INTERNATIONAL INC Common Stock $55.60 2020-01-31 04:02:39 $55.60 0% $0.00
MNST Monster Beverage Corp $83.19 2020-01-31 04:02:39 $83.19 0% $0.00
MS Morgan Stanley $50.35 2020-01-31 04:02:39 $50.35 0% $0.00
MOS Mosaic Co $17.19 2020-01-31 04:02:39 $17.19 0% $0.00
MSI Motorola Solutions Inc $144.26 2020-01-31 04:02:39 $144.26 0% $0.00
MSCI Msci Inc $362.37 2020-01-31 04:02:39 $362.37 0% $0.00
MYL Mylan NV $16.36 2020-01-31 04:02:39 $16.36 0% $0.00
NDAQ Nasdaq Inc $132.87 2020-01-31 04:02:39 $132.87 0% $0.00
NOV National-Oilwell Varco, Inc. $11.99 2020-01-31 04:02:39 $11.99 0% $0.00
NKTR Nektar Therapeutics $21.85 2020-01-31 04:02:39 $21.85 0% $0.00
NTAP NetApp Inc. $42.80 2020-01-31 04:02:39 $42.80 0% $0.00
NFLX Netflix, Inc. $335.66 2020-01-10 08:33:03 $494.73 47.39% $27,431.82
NWL Newell Brands Inc $17.15 2020-01-10 08:33:03 $17.15 0% $0.00
NFX Newfield Exploration Co. $4.03 2020-01-10 08:33:03 $4.03 0% $0.00
NEM Newmont Mining Corp $46.78 2020-02-20 09:33:36 $68.91 47.31% $33,496.49
NWSA News Corp Class A $14.34 2020-02-20 09:33:36 $14.34 0% $0.00
NWS News Corp Class B $14.32 2020-02-20 09:33:36 $14.32 0% $0.00
NEE NextEra Energy Inc $287.78 2020-02-20 09:33:36 $287.78 0% $0.00
NLSN Nielsen Holdings PLC $15.88 2020-02-20 09:33:36 $15.88 0% $0.00
NKE Nike Inc $101.65 2020-01-08 09:57:27 $101.86 0.21% $203.30
NI NiSource Inc. $24.75 2020-01-08 09:57:27 $24.75 0% $0.00
NBL Noble Energy, Inc. $10.27 2020-01-08 09:57:27 $10.27 0% $0.00
JWN Nordstrom, Inc. $16.00 2020-01-08 09:57:27 $16.00 0% $0.00
NSC Norfolk Southern Corp. $198.99 2020-01-08 09:57:27 $198.99 0% $0.00
NTRS Northern Trust Corporation $83.25 2020-01-08 09:57:27 $83.25 0% $0.00
NOC Northrop Grumman Corporation $329.27 2020-01-08 09:57:27 $329.27 0% $0.00
NCLH Norwegian Cruise Line Holdings Ltd $13.99 2020-01-08 09:57:27 $13.99 0% $0.00
NRG NRG Energy Inc $34.28 2020-01-08 09:57:27 $34.28 0% $0.00
NUE Nucor Corporation $44.34 2020-01-08 09:57:27 $44.34 0% $0.00
NVDA NVIDIA Corporation $245.44 2020-03-10 02:27:57 $447.98 82.52% $12,517.44
OXY Occidental Petroleum Corporation $15.45 2020-03-10 02:27:57 $15.45 0% $0.00
OMC Omnicom Group Inc. $53.27 2020-03-10 02:27:57 $53.27 0% $0.00
OKE ONEOK, Inc. $29.47 2020-03-10 02:27:57 $29.47 0% $0.00
ORCL Oracle Corporation $55.23 2020-03-10 02:27:57 $55.23 0% $0.00
PCAR PACCAR Inc $88.60 2020-03-10 02:27:57 $88.60 0% $0.00
PKG Packaging Corp Of America $95.47 2020-03-10 02:27:57 $95.47 0% $0.00
PH Parker-Hannifin Corp $197.60 2020-03-10 02:27:57 $197.60 0% $0.00
PAYX Paychex, Inc. $73.45 2020-03-10 02:27:57 $73.45 0% $0.00
PYPL Paypal Holdings Inc $198.63 2020-03-10 02:27:57 $198.63 0% $0.00
PNR Pentair PLC $44.02 2020-03-10 02:27:57 $44.02 0% $0.00
PEP PepsiCo, Inc. $136.74 2020-03-10 02:27:57 $136.74 0% $0.00
PKI PerkinElmer, Inc. $119.33 2020-03-10 02:27:57 $119.33 0% $0.00
PRGO Perrigo Company PLC $50.45 2020-03-10 02:27:57 $50.45 0% $0.00
PFE Pfizer Inc. $36.50 2020-07-21 05:54:43 $38.45 5.34% $37,468.25
PCG PG&E Corporation $9.10 2020-07-21 05:54:43 $9.10 0% $0.00
PM Philip Morris International Inc. $77.50 2020-07-21 05:54:43 $77.50 0% $0.00
PSX Phillips 66 $62.87 2020-07-21 05:54:43 $62.87 0% $0.00
PNW Pinnacle West Capital Corporation $82.16 2020-07-21 05:54:43 $82.16 0% $0.00
PXD Pioneer Natural Resources $104.28 2020-07-21 05:54:43 $104.28 0% $0.00
PNC PNC Financial Services Group Inc $109.70 2020-07-21 05:54:43 $109.70 0% $0.00
PPG PPG Industries, Inc. $113.71 2020-07-21 05:54:43 $113.71 0% $0.00
PPL PPL Corp $27.14 2020-07-21 05:54:43 $27.14 0% $0.00
PFG Principal Financial Group Inc $44.32 2020-07-21 05:54:43 $44.32 0% $0.00
PG Procter & Gamble Co $124.90 2020-01-02 05:41:26 $133.55 6.93% $1,249.00
PGR Progressive Corp $90.73 2020-01-02 05:41:26 $90.73 0% $0.00
PLD Prologis Inc $105.07 2020-01-02 05:41:26 $105.07 0% $0.00
PRU Prudential Financial Inc $67.96 2020-01-02 05:41:26 $67.96 0% $0.00
PEG Public Service Enterprise Group Inc. $55.65 2020-01-02 05:41:26 $55.65 0% $0.00
PSA Public Storage $199.25 2020-01-02 05:41:26 $199.25 0% $0.00
PHM PulteGroup, Inc. $44.26 2020-01-02 05:41:26 $44.26 0% $0.00
PVH PVH Corp $51.81 2020-01-02 05:41:26 $51.81 0% $0.00
QRVO Qorvo Inc $130.97 2020-01-02 05:41:26 $130.97 0% $0.00
QCOM QUALCOMM, Inc. $108.25 2020-01-02 05:41:26 $108.25 0% $0.00
PWR Quanta Services Inc $46.36 2020-01-02 05:41:26 $46.36 0% $0.00
DGX Quest Diagnostics Inc $125.21 2020-01-02 05:41:26 $125.21 0% $0.00
RL Ralph Lauren Corp $65.96 2020-01-02 05:41:26 $65.96 0% $0.00
RJF Raymond James Financial, Inc. $74.78 2020-01-02 05:41:26 $74.78 0% $0.00
RTN Raytheon Company $51.45 2020-01-02 05:41:26 $51.45 0% $0.00
O Realty Income Corp $62.72 2020-01-02 05:41:26 $62.72 0% $0.00
RHT Red Hat Inc $0.27 2020-01-02 05:41:26 $0.27 0% $0.00
REG Regency Centers Corp $41.65 2020-01-02 05:41:26 $41.65 0% $0.00
REGN Regeneron Pharmaceuticals Inc $658.21 2020-07-21 05:54:06 $620.21 -5.77% $381.36
RF Regions Financial Corp $11.26 2020-07-21 05:54:06 $11.26 0% $0.00
RSG Republic Services, Inc. $90.59 2020-07-21 05:54:06 $90.59 0% $0.00
RMD ResMed Inc. $173.24 2020-07-21 05:54:06 $173.24 0% $0.00
RHI Robert Half International Inc. $53.58 2020-07-21 05:54:06 $53.58 0% $0.00
ROK Rockwell Automation $223.64 2020-07-21 05:54:06 $223.64 0% $0.00
ROL Rollins, Inc. $33.75 2020-01-10 06:57:33 $54.86 62.55% $1,687.50
ROP Roper Technologies Inc $440.90 2020-01-10 06:57:33 $440.90 0% $0.00
ROST Ross Stores, Inc. $89.44 2020-01-10 06:57:33 $89.44 0% $0.00
RCL Royal Caribbean Cruises Ltd $52.10 2020-01-10 06:57:33 $52.10 0% $0.00
SPGI S&P Global Inc $347.27 2020-01-10 06:57:33 $347.27 0% $0.00
CRM salesforce.com, inc. $201.05 2020-01-10 06:57:33 $201.05 0% $0.00
SBAC SBA Communications Corporation $311.28 2020-01-10 06:57:33 $311.28 0% $0.00
SCG SCANA Corporation $1.92 2020-01-10 06:57:33 $1.92 0% $0.00
SLB Schlumberger Limited. $19.63 2020-01-10 06:57:33 $19.63 0% $0.00
STX Seagate Technology PLC $45.31 2020-01-10 06:57:33 $45.31 0% $0.00
SEE Sealed Air Corp $40.77 2020-01-10 06:57:33 $40.77 0% $0.00
SRE Sempra Energy $129.90 2020-01-10 06:57:33 $129.90 0% $0.00
SHW Sherwin-Williams Co $656.72 2020-01-10 06:57:33 $656.72 0% $0.00
SPG Simon Property Group Inc $62.19 2020-01-10 06:57:33 $62.19 0% $0.00
SWKS Skyworks Solutions Inc $144.37 2020-01-10 06:57:33 $144.37 0% $0.00
SLG SL Green Realty Corp $48.62 2020-01-10 06:57:33 $48.62 0% $0.00
SNA Snap-on Incorporated $147.30 2020-01-10 06:57:33 $147.30 0% $0.00
SO Southern Co $54.69 2020-01-10 06:57:33 $54.69 0% $0.00
LUV Southwest Airlines Co $33.28 2020-01-10 06:57:33 $33.28 0% $0.00
SPY SPDR S&P 500 ETF $321.86 2020-01-02 00:49:11 $334.57 3.95% $79,826.34
SWK Stanley Black & Decker, Inc. $157.26 2020-01-02 00:49:11 $157.26 0% $0.00
SBUX Starbucks Corporation $75.79 2020-01-02 00:49:11 $75.79 0% $0.00
STT State Street Corp $69.57 2020-01-02 00:49:11 $69.57 0% $0.00
SYK Stryker Corporation $191.54 2020-01-02 00:49:11 $191.54 0% $0.00
STI SunTrust Banks, Inc. $59.61 2020-01-02 00:49:11 $59.61 0% $0.00
SIVB SVB Financial Group $237.34 2020-01-02 00:49:11 $237.34 0% $0.00
SYMC Symantec Corporation $23.07 2020-01-02 00:49:11 $23.07 0% $0.00
SYF Synchrony Financial $23.69 2020-01-02 00:49:11 $23.69 0% $0.00
SNPS Synopsys, Inc. $198.79 2020-01-02 00:49:11 $198.79 0% $0.00
SYY SYSCO Corporation $57.80 2020-01-02 00:49:11 $57.80 0% $0.00
TROW T. Rowe Price Group Inc $139.63 2020-01-02 00:49:11 $139.63 0% $0.00
TTWO TAKE-TWO INTERACTIVE SOFTWARE, INC Common Stock $174.96 2020-01-02 00:49:11 $174.96 0% $0.00
TPR Tapestry Inc $14.51 2020-01-02 00:49:11 $14.51 0% $0.00
TGT Target Corporation $131.75 2020-01-02 00:49:11 $131.75 0% $0.00
TEL TE Connectivity Ltd $92.42 2020-01-02 00:49:11 $92.42 0% $0.00
FTI TechnipFMC PLC $8.31 2020-01-02 00:49:11 $8.31 0% $0.00
TSLA Tesla Inc $650.57 2020-02-01 04:07:17 $1,452.71 123.3% $68,732.92
TXN Texas Instruments Incorporated $133.56 2020-02-01 04:07:17 $133.56 0% $0.00
TXT Textron Inc. $37.58 2020-02-01 04:07:17 $37.58 0% $0.00
KO The Coca-Cola Co $58.86 2020-01-31 06:29:14 $47.80 -18.79% $1,977.83
WU The Western Union Company $23.27 2020-01-31 06:29:14 $23.27 0% $0.00
TMO Thermo Fisher Scientific Inc. $414.33 2020-01-31 06:29:14 $414.33 0% $0.00
TIF Tiffany & Co. $124.82 2020-01-31 06:29:14 $124.82 0% $0.00
TJX TJX Companies Inc $55.45 2020-01-31 06:29:14 $55.45 0% $0.00
TSS Total System Services, Inc. $8.90 2020-01-31 06:29:14 $8.90 0% $0.00
TSCO Tractor Supply Company $148.10 2020-01-31 06:29:14 $148.10 0% $0.00
TDG TransDigm Group Incorporated $475.39 2020-01-31 06:29:14 $475.39 0% $0.00
TRV Travelers Companies Inc $117.36 2020-01-31 06:29:14 $117.36 0% $0.00
TRIP Tripadvisor Inc Common Stock $21.06 2020-01-31 06:29:14 $21.06 0% $0.00
FOXA Twenty-First Century Fox Inc Class A $24.67 2020-01-31 06:29:14 $24.67 0% $0.00
FOX Twenty-First Century Fox Inc Class B $24.89 2020-01-31 06:29:14 $24.89 0% $0.00
TWTR Twitter Inc $37.14 2020-01-31 06:29:14 $37.14 0% $0.00
TSN Tyson Foods, Inc. $62.80 2020-01-31 06:29:14 $62.80 0% $0.00
USB U.S. Bancorp $37.46 2020-01-31 06:29:14 $37.46 0% $0.00
UDR UDR, Inc. $35.89 2020-01-31 06:29:14 $35.89 0% $0.00
ULTA Ulta Beauty Inc $203.88 2020-01-31 06:29:14 $203.88 0% $0.00
UAA Under Armour Inc Class A $10.33 2020-01-31 06:29:14 $10.33 0% $0.00
UA Under Armour Inc Class C $9.20 2020-01-31 06:29:14 $9.20 0% $0.00
UNP Union Pacific Corporation $182.93 2020-01-31 06:29:14 $182.93 0% $0.00
UAL United Continental Holdings Inc $34.33 2020-01-31 06:29:14 $34.33 0% $0.00
UPS United Parcel Service, Inc. $156.90 2020-01-31 06:29:14 $156.90 0% $0.00
URI United Rentals, Inc. $173.59 2020-01-31 06:29:14 $173.59 0% $0.00
UTX United Technologies Corporation $98.20 2020-01-31 06:29:14 $98.20 0% $0.00
UNH UnitedHealth Group Inc $317.03 2020-01-31 06:29:14 $317.03 0% $0.00
UHS Universal Health Services, Inc. Class B $109.44 2020-01-31 06:29:14 $109.44 0% $0.00
UNM Unum Group $17.93 2020-01-31 06:29:14 $17.93 0% $0.00
VLO Valero Energy Corporation $52.66 2020-01-31 06:29:14 $52.66 0% $0.00
VEU Vanguard FTSE All-Wld ex-US ETF $53.75 2020-01-02 00:49:11 $50.57 -5.92% $79,957.25
VOO Vanguard S&P 500 ETF $295.80 2020-01-02 00:49:11 $307.36 3.91% $119,493.24
BND Vanguard Total Bond Market ETF $83.86 2020-01-02 00:49:11 $89.38 6.58% $79,934.44
VTI Vanguard Total Stock Market ETF $163.62 2020-01-02 00:49:11 $169.80 3.78% $108,394.33
VT Vanguard Total World Stock ETF $80.99 2020-01-02 00:49:11 $80.69 -0.37% $95,341.06
VAR Varian Medical Systems, Inc. $173.82 2020-01-02 00:49:11 $173.82 0% $0.00
VTR Ventas, Inc. $41.52 2020-01-02 00:49:11 $41.52 0% $0.00
VRSN Verisign, Inc. $210.40 2020-01-02 00:49:11 $210.40 0% $0.00
VRSK Verisk Analytics, Inc. $191.16 2020-01-02 00:49:11 $191.16 0% $0.00
VZ Verizon Communications Inc. $58.53 2020-01-02 00:49:11 $58.53 0% $0.00
VRTX Vertex Pharmaceuticals Incorporated $272.99 2020-01-02 00:49:11 $272.99 0% $0.00
VFC VF Corp $61.28 2020-01-02 00:49:11 $61.28 0% $0.00
VIAB Viacom, Inc. Class B $24.37 2020-01-02 00:49:11 $24.37 0% $0.00
V Visa Inc Class A $198.97 2020-02-01 01:03:28 $196.36 -1.31% $5,531.42
VNO Vornado Realty Trust $35.55 2020-02-01 01:03:28 $35.55 0% $0.00
VMC Vulcan Materials Company $130.08 2020-02-01 01:03:28 $130.08 0% $0.00
GWW W W Grainger Inc $349.38 2020-02-01 01:03:28 $349.38 0% $0.00
WBA Walgreens Boots Alliance Inc $41.52 2020-02-01 01:03:28 $41.52 0% $0.00
WMT Walmart Inc $118.84 2020-01-02 05:42:42 $129.97 9.37% $1,188.40
DIS Walt Disney Co $129.93 2020-01-02 05:42:42 $129.93 0% $0.00
WM Waste Management, Inc. $112.72 2020-01-02 05:42:42 $112.72 0% $0.00
WAT Waters Corporation $212.34 2020-01-02 05:42:42 $212.34 0% $0.00
WEC WEC Energy Group Inc $94.37 2020-01-02 05:42:42 $94.37 0% $0.00
WCG WellCare Health Plans, Inc. $0.11 2020-01-02 05:42:42 $0.11 0% $0.00
WFC Wells Fargo & Co $25.07 2020-01-02 05:42:42 $25.07 0% $0.00
WELL Welltower Inc $57.18 2020-01-02 05:42:42 $57.18 0% $0.00
WDC Western Digital Corp $36.99 2020-01-02 05:42:42 $36.99 0% $0.00
WRK Westrock Co $29.07 2020-01-02 05:42:42 $29.07 0% $0.00
WY Weyerhaeuser Co $28.35 2020-01-02 05:42:42 $28.35 0% $0.00
WHR Whirlpool Corporation $173.20 2020-01-02 05:42:42 $173.20 0% $0.00
WMB Williams Companies Inc $20.85 2020-01-02 05:42:42 $20.85 0% $0.00
WLTW Willis Towers Watson PLC $199.47 2020-01-02 05:42:42 $199.47 0% $0.00
WYNN Wynn Resorts, Limited $126.16 2020-02-01 01:02:01 $74.10 -41.27% $10,680.03
XEL Xcel Energy Inc $72.34 2020-02-01 01:02:01 $72.34 0% $0.00
XRX Xerox Corp $16.76 2020-02-01 01:02:01 $16.76 0% $0.00
XLNX Xilinx, Inc. $107.46 2020-02-01 01:02:01 $107.46 0% $0.00
XYL Xylem Inc $77.15 2020-02-01 01:02:01 $77.15 0% $0.00
YUM Yum! Brands, Inc. $90.82 2020-02-01 01:02:01 $90.82 0% $0.00
ZBH Zimmer Biomet Holdings Inc $139.38 2020-02-01 01:02:01 $139.38 0% $0.00
ZION Zions Bancorp $33.79 2020-02-01 01:02:01 $33.79 0% $0.00
ZTS Zoetis Inc $158.88 2020-02-01 01:02:01 $158.88 0% $0.00